Time;durP1;ratioP1;P1;durP2;ratioP2;P2;SDS_P1;SDS_P2;PMS_P1;PMS_P2;Temp;Humidity;BMP_temperature;BMP_pressure;BME280_temperature;BME280_humidity;BME280_pressure;Samples;Min_cycle;Max_cycle;Signal;HPM_P1;HPM_P2
2023/10/25 00:00:16;;;;;;;3.10;1.93;;;;;;;-145.69;66.02;52240.41;5074924;28;20203;-80
2023/10/25 00:02:43;;;;;;;2.77;1.83;;;;;;;-145.69;65.37;52248.34;5075012;28;20202;-80
2023/10/25 00:05:10;;;;;;;3.87;2.53;;;;;;;-145.69;65.17;52238.44;5075245;28;20202;-80
2023/10/25 00:07:36;;;;;;;3.23;2.47;;;;;;;-145.69;66.13;52268.13;5075077;28;20201;-80
2023/10/25 00:10:05;;;;;;;5.77;2.37;;;;;;;-145.69;65.83;52276.06;5074800;28;20202;-80
2023/10/25 00:12:32;;;;;;;4.53;2.10;;;;;;;-145.69;66.12;52218.63;5074907;28;20199;-79
2023/10/25 00:14:58;;;;;;;2.60;1.70;;;;;;;-145.69;65.34;52282.00;5074640;28;20669;-80
2023/10/25 00:17:24;;;;;;;2.37;2.10;;;;;;;-145.69;65.85;52274.06;5074933;28;20203;-80
2023/10/25 00:19:52;;;;;;;2.77;2.30;;;;;;;-145.69;66.07;52254.28;5074475;28;20195;-80
2023/10/25 00:22:18;;;;;;;4.53;2.30;;;;;;;-145.69;66.09;52246.34;5079457;28;20712;-80
2023/10/25 00:24:45;;;;;;;2.80;2.03;;;;;;;-145.69;66.44;52242.38;5087034;28;20222;-80
2023/10/25 00:27:13;;;;;;;3.90;2.20;;;;;;;-145.69;66.34;52250.31;5074363;28;20672;-79
2023/10/25 00:29:39;;;;;;;3.17;2.33;;;;;;;-145.69;65.83;52238.44;5074601;28;20979;-80
2023/10/25 00:32:06;;;;;;;3.40;2.67;;;;;;;-145.69;66.36;52254.28;5073829;28;20201;-80
2023/10/25 00:34:33;;;;;;;3.90;2.33;;;;;;;-145.69;65.68;52222.59;5074278;28;20195;-80
2023/10/25 00:36:59;;;;;;;3.30;2.23;;;;;;;-145.69;65.78;52238.44;5074226;28;20677;-79
2023/10/25 00:39:26;;;;;;;3.77;2.50;;;;;;;-145.69;65.96;52287.94;5074113;28;20206;-80
2023/10/25 00:41:52;;;;;;;3.17;2.30;;;;;;;-145.69;66.20;52250.31;5073921;28;20199;-79
2023/10/25 00:44:20;;;;;;;3.53;2.63;;;;;;;-145.69;66.38;52242.38;5063657;28;20231;-80
2023/10/25 00:46:49;;;;;;;2.93;2.17;;;;;;;-145.69;65.61;52274.06;5054194;28;20214;-80
2023/10/25 00:49:16;;;;;;;3.17;2.63;;;;;;;-145.69;66.30;52246.34;5054057;28;20682;-79
2023/10/25 00:51:42;;;;;;;5.50;2.50;;;;;;;-145.69;66.33;52234.47;5058632;28;20191;-80
2023/10/25 00:54:10;;;;;;;4.37;2.47;;;;;;;-145.69;66.15;52252.28;5073409;28;20229;-80
2023/10/25 00:56:38;;;;;;;2.80;2.20;;;;;;;-145.69;66.10;52246.34;5073839;28;20757;-80
2023/10/25 00:59:05;;;;;;;3.73;2.70;;;;;;;-145.69;66.33;52238.44;5073787;28;20194;-80
2023/10/25 01:01:34;;;;;;;4.43;2.70;;;;;;;-145.69;66.30;52246.34;5073711;28;20206;-80
2023/10/25 01:04:00;;;;;;;3.13;2.07;;;;;;;-145.69;66.61;52268.13;5073712;28;20226;-80
2023/10/25 01:06:29;;;;;;;3.23;2.37;;;;;;;-145.69;66.58;52282.00;5073667;28;20233;-80
2023/10/25 01:08:56;;;;;;;3.10;2.47;;;;;;;-145.69;67.20;52264.16;5073493;28;20547;-80
2023/10/25 01:11:23;;;;;;;3.70;2.53;;;;;;;-145.69;66.83;52268.13;5073542;28;20199;-80
2023/10/25 01:13:49;;;;;;;2.90;2.20;;;;;;;-145.69;66.98;52266.16;5073546;28;20210;-80
2023/10/25 01:16:16;;;;;;;3.60;2.20;;;;;;;-145.69;66.38;52244.38;5073790;28;20202;-81
2023/10/25 01:18:44;;;;;;;3.37;2.13;;;;;;;-145.69;66.60;52234.47;5073476;28;20206;-80
2023/10/25 01:21:10;;;;;;;2.63;2.13;;;;;;;-145.69;66.79;52274.06;5073639;28;20214;-80
2023/10/25 01:23:38;;;;;;;3.53;2.30;;;;;;;-145.69;65.75;52280.00;5090160;28;20225;-81
2023/10/25 01:26:05;;;;;;;2.53;2.00;;;;;;;-145.69;66.20;52254.28;5088462;28;20198;-80
2023/10/25 01:28:31;;;;;;;2.43;1.90;;;;;;;-145.69;66.25;52276.06;5092510;28;20197;-80
2023/10/25 01:30:58;;;;;;;2.70;2.13;;;;;;;-145.69;66.19;52274.06;5093392;28;20663;-80
2023/10/25 01:33:24;;;;;;;2.77;1.93;;;;;;;-145.69;66.59;52272.09;5093874;28;20202;-80
2023/10/25 01:35:52;;;;;;;2.40;1.90;;;;;;;-145.69;66.31;52289.91;5092549;28;20661;-80
2023/10/25 01:38:18;;;;;;;2.50;1.93;;;;;;;-145.69;66.47;52274.06;5093314;28;20202;-80
2023/10/25 01:40:46;;;;;;;2.50;2.00;;;;;;;-145.69;66.44;52282.00;5093393;28;20198;-80
2023/10/25 01:43:12;;;;;;;2.70;2.00;;;;;;;-145.69;66.89;52264.16;5092352;28;20233;-80
2023/10/25 01:45:39;;;;;;;5.53;1.80;;;;;;;-145.69;67.70;52234.47;5077161;28;20368;-80
2023/10/25 01:48:05;;;;;;;2.93;2.20;;;;;;;-145.69;66.90;52234.47;5073975;28;20205;-80
2023/10/25 01:50:32;;;;;;;3.33;2.23;;;;;;;-145.69;66.84;52282.00;5073076;28;20207;-80
2023/10/25 01:52:58;;;;;;;2.37;1.90;;;;;;;-145.69;66.38;52276.06;5073172;28;20199;-80
2023/10/25 01:55:25;;;;;;;3.07;1.70;;;;;;;-145.69;65.69;52268.13;5081622;28;20204;-80
2023/10/25 01:57:53;;;;;;;4.07;1.90;;;;;;;-145.69;65.65;52256.25;5093287;28;20202;-80
2023/10/25 02:00:19;;;;;;;2.33;1.83;;;;;;;-145.69;65.31;52258.22;5092964;28;20197;-80
2023/10/25 02:02:46;;;;;;;2.47;1.70;;;;;;;-145.69;65.41;52278.03;5093146;28;20202;-80
2023/10/25 02:05:12;;;;;;;2.70;1.93;;;;;;;-145.69;65.62;52305.75;5092877;28;20236;-80
2023/10/25 02:07:39;;;;;;;8.07;1.83;;;;;;;-145.69;66.35;52297.84;5077717;28;20199;-80
2023/10/25 02:10:06;;;;;;;2.63;1.97;;;;;;;-145.69;66.41;52242.38;5072798;28;20586;-80
2023/10/25 02:12:33;;;;;;;3.37;2.20;;;;;;;-145.69;65.70;52287.94;5072951;28;20203;-80
2023/10/25 02:15:01;;;;;;;2.67;2.00;;;;;;;-145.69;65.97;52270.13;5072858;28;20220;-79
2023/10/25 02:17:27;;;;;;;2.23;1.80;;;;;;;-145.69;66.00;52278.03;5072616;28;20646;-79
2023/10/25 02:19:54;;;;;;;3.03;2.30;;;;;;;-145.69;66.35;52282.00;5072170;28;20195;-80
2023/10/25 02:22:20;;;;;;;6.30;2.63;;;;;;;-145.69;66.18;52264.16;5073959;28;20558;-79
2023/10/25 02:24:47;;;;;;;4.60;2.37;;;;;;;-145.69;66.46;52258.22;5072423;28;20223;-80
2023/10/25 02:27:13;;;;;;;3.83;2.47;;;;;;;-145.69;66.28;52238.44;5072069;28;20198;-79
2023/10/25 02:29:40;;;;;;;3.30;2.27;;;;;;;-145.69;66.11;52305.75;5087764;28;20767;-79
2023/10/25 02:32:10;;;;;;;7.10;2.37;;;;;;;-145.69;66.23;52270.13;5092783;28;20851;-79
2023/10/25 02:34:37;;;;;;;4.27;2.60;;;;;;;-145.69;66.30;52282.00;5092757;28;20254;-80
2023/10/25 02:37:04;;;;;;;5.03;2.50;;;;;;;-145.69;66.53;52268.13;5093029;28;20202;-79
2023/10/25 02:39:30;;;;;;;3.10;2.30;;;;;;;-145.69;65.80;52282.00;5092388;28;20766;-79
2023/10/25 02:41:57;;;;;;;4.67;2.47;;;;;;;-145.69;65.67;52254.28;5092881;28;20194;-79
2023/10/25 02:44:23;;;;;;;5.27;3.03;;;;;;;-145.69;66.66;52297.84;5092918;28;20221;-80
2023/10/25 02:46:49;;;;;;;3.57;2.43;;;;;;;-145.69;66.55;52248.34;5093092;28;20565;-79
2023/10/25 02:49:17;;;;;;;4.60;3.20;;;;;;;-145.69;66.18;52236.44;5082483;28;20203;-79
2023/10/25 02:51:44;;;;;;;6.68;3.38;;;;;;;-145.69;67.35;52258.22;5081595;28;20444;-80
2023/10/25 02:54:10;;;;;;;6.20;3.67;;;;;;;-145.69;66.65;52258.22;5093559;28;20202;-79
2023/10/25 02:56:37;;;;;;;4.83;3.30;;;;;;;-145.69;67.56;52272.09;5096410;28;20708;-79
2023/10/25 02:59:04;;;;;;;5.37;3.93;;;;;;;-145.69;67.28;52278.03;5096279;28;20202;-80
2023/10/25 03:01:30;;;;;;;5.47;3.80;;;;;;;-145.69;66.75;52254.28;5096207;28;20252;-79
2023/10/25 03:03:57;;;;;;;5.73;3.23;;;;;;;-145.69;66.70;52305.75;5095913;28;20217;-81
2023/10/25 03:06:24;;;;;;;5.20;3.30;;;;;;;-145.69;66.60;52264.16;5096385;28;20213;-80
2023/10/25 03:08:51;;;;;;;4.40;2.80;;;;;;;-145.69;66.17;52283.97;5096243;28;20214;-80
2023/10/25 03:11:17;;;;;;;7.17;4.03;;;;;;;-145.69;66.58;52305.75;5096220;28;20297;-80
2023/10/25 03:13:52;;;;;;;6.77;3.97;;;;;;;-145.69;66.01;52274.06;5095851;28;20197;-80
2023/10/25 03:16:18;;;;;;;6.83;3.70;;;;;;;-145.69;66.76;52285.97;5096328;28;20244;-79
2023/10/25 03:18:45;;;;;;;6.37;3.70;;;;;;;-145.69;66.27;52266.16;5095517;28;20876;-79
2023/10/25 03:21:11;;;;;;;9.43;3.30;;;;;;;-145.69;66.40;52293.88;5090404;28;20665;-80
2023/10/25 03:23:39;;;;;;;23.40;3.50;;;;;;;-145.69;67.08;52276.06;5075689;28;20241;-80
2023/10/25 03:26:06;;;;;;;7.20;2.90;;;;;;;-145.69;66.92;52270.13;5075108;28;20207;-79
2023/10/25 03:28:34;;;;;;;6.83;3.60;;;;;;;-145.69;67.08;52264.16;5080013;28;20194;-80
2023/10/25 03:31:05;;;;;;;19.73;3.70;;;;;;;-145.69;66.54;52311.69;5090259;28;20198;-80
2023/10/25 03:33:38;;;;;;;7.53;3.90;;;;;;;-145.69;67.86;52297.84;5094836;28;20190;-80
2023/10/25 03:36:12;;;;;;;7.95;5.20;;;;;;;-145.69;68.51;52291.91;5074194;28;20454;-80
2023/10/25 03:38:43;;;;;;;7.63;4.37;;;;;;;-145.69;67.13;52258.22;5075115;28;20198;-79
2023/10/25 03:41:10;;;;;;;7.23;3.90;;;;;;;-145.69;67.87;52303.78;5075278;28;20198;-80
2023/10/25 03:43:37;;;;;;;7.10;4.20;;;;;;;-145.69;67.50;52278.03;5075013;28;20250;-80
2023/10/25 03:46:06;;;;;;;7.07;4.53;;;;;;;-145.69;68.83;52282.00;5075803;28;20658;-80
2023/10/25 03:48:37;;;;;;;7.43;4.13;;;;;;;-145.69;67.60;52258.22;5075277;28;20618;-81
2023/10/25 03:51:05;;;;;;;7.47;4.07;;;;;;;-145.69;66.82;52285.97;5075372;28;20202;-80
2023/10/25 03:53:31;;;;;;;7.23;3.87;;;;;;;-145.69;66.59;52289.91;5075030;28;20199;-80
2023/10/25 03:55:59;;;;;;;6.23;3.50;;;;;;;-145.69;66.77;52250.31;5074991;28;20306;-80
2023/10/25 03:58:26;;;;;;;7.50;4.47;;;;;;;-145.69;67.78;52260.22;5075011;28;20233;-80
2023/10/25 04:01:00;;;;;;;10.20;4.10;;;;;;;-145.69;67.28;52287.94;5080808;28;20292;-80
2023/10/25 04:03:30;;;;;;;8.67;4.83;;;;;;;-145.69;67.72;52254.28;5095070;28;20224;-80
2023/10/25 04:05:56;;;;;;;8.10;4.60;;;;;;;-145.69;67.23;52262.19;5093998;28;20256;-80
2023/10/25 04:08:24;;;;;;;7.43;4.73;;;;;;;-145.69;67.50;52301.81;5094868;28;20202;-81
2023/10/25 04:10:51;;;;;;;7.30;4.33;;;;;;;-145.69;66.64;52242.38;5094887;28;20545;-80
2023/10/25 04:13:19;;;;;;;11.57;4.17;;;;;;;-145.69;66.95;52262.19;5094961;28;20205;-80
2023/10/25 04:15:54;;;;;;;7.17;4.53;;;;;;;-145.69;68.10;52307.75;5095134;28;20202;-80
2023/10/25 04:18:20;;;;;;;9.27;5.20;;;;;;;-145.69;69.27;52305.75;5094573;28;20463;-80
2023/10/25 04:20:50;;;;;;;7.93;4.60;;;;;;;-145.69;68.33;52282.00;5093492;28;20452;-81
2023/10/25 04:23:18;;;;;;;10.30;5.13;;;;;;;-145.69;68.12;52295.84;5094966;28;20197;-80
2023/10/25 04:25:45;;;;;;;9.33;4.40;;;;;;;-145.69;67.07;52270.13;5094631;28;20241;-80
2023/10/25 04:28:12;;;;;;;8.43;4.33;;;;;;;-145.69;68.24;52270.13;5091189;28;20289;-80
2023/10/25 04:30:42;;;;;;;6.70;4.23;;;;;;;-145.69;68.08;52285.97;5075960;28;20203;-80
2023/10/25 04:33:09;;;;;;;8.97;4.00;;;;;;;-145.69;68.24;52309.72;5074440;28;20199;-80
2023/10/25 04:35:36;;;;;;;6.90;4.40;;;;;;;-145.69;68.25;52276.06;5077871;28;20669;-80
2023/10/25 04:38:02;;;;;;;6.50;3.73;;;;;;;-145.69;67.23;52250.31;5093504;28;20198;-80
2023/10/25 04:40:29;;;;;;;7.90;4.50;;;;;;;-145.69;68.27;52268.13;5094736;28;20225;-80
2023/10/25 04:42:56;;;;;;;7.10;3.97;;;;;;;-145.69;67.20;52282.00;5094238;28;20237;-80
2023/10/25 04:45:23;;;;;;;12.10;4.80;;;;;;;-145.69;67.58;52293.88;5094069;28;20696;-81
2023/10/25 04:47:52;;;;;;;6.93;4.30;;;;;;;-145.69;68.15;52252.28;5093889;28;20202;-80
2023/10/25 04:50:20;;;;;;;8.20;3.93;;;;;;;-145.69;68.22;52289.91;5087103;28;20712;-80
2023/10/25 04:52:50;;;;;;;10.00;4.77;;;;;;;-145.69;68.22;52282.00;5069010;28;20199;-80
2023/10/25 04:55:17;;;;;;;10.07;4.87;;;;;;;-145.69;68.22;52260.22;5070484;28;20231;-81
2023/10/25 04:57:44;;;;;;;7.73;3.97;;;;;;;-145.69;67.86;52264.16;5073900;28;20455;-80
2023/10/25 05:00:11;;;;;;;8.47;4.97;;;;;;;-145.69;68.65;52250.31;5073732;28;20289;-81
2023/10/25 05:02:38;;;;;;;7.73;4.63;;;;;;;-145.69;69.12;52260.22;5074176;28;20650;-81
2023/10/25 05:05:08;;;;;;;10.77;5.43;;;;;;;-145.69;68.57;52282.00;5074404;28;20226;-81
2023/10/25 05:07:36;;;;;;;8.87;4.53;;;;;;;-145.69;69.00;52285.97;5074458;28;20707;-81
2023/10/25 05:10:04;;;;;;;9.30;5.10;;;;;;;-145.69;68.57;52307.75;5074022;28;20198;-81
2023/10/25 05:12:37;;;;;;;8.20;4.63;;;;;;;-145.69;67.63;52254.28;5073818;28;20203;-81
2023/10/25 05:15:10;;;;;;;7.83;4.40;;;;;;;-145.69;68.39;52280.00;5074138;28;20203;-81
2023/10/25 05:17:38;;;;;;;7.77;4.47;;;;;;;-145.69;68.29;52280.00;5073752;28;20202;-80
2023/10/25 05:20:11;;;;;;;8.60;4.83;;;;;;;-145.69;68.57;52266.16;5079368;28;20197;-80
2023/10/25 05:22:42;;;;;;;9.07;5.20;;;;;;;-145.69;68.57;52266.16;5093516;28;20293;-80
2023/10/25 05:25:13;;;;;;;6.90;4.63;;;;;;;-145.69;68.31;52258.22;5093331;28;20822;-80
2023/10/25 05:27:43;;;;;;;8.30;5.10;;;;;;;-145.69;67.63;52250.31;5093612;28;20230;-80
2023/10/25 05:30:12;;;;;;;9.27;4.70;;;;;;;-145.69;68.02;52285.97;5091243;28;20557;-80
2023/10/25 05:32:45;;;;;;;8.40;4.80;;;;;;;-145.69;67.58;52254.28;5072905;28;20191;-80
2023/10/25 05:35:15;;;;;;;7.10;4.63;;;;;;;-145.69;67.91;52242.38;5073207;28;20230;-81
2023/10/25 05:37:42;;;;;;;8.70;5.20;;;;;;;-145.69;67.77;52244.38;5073023;28;20195;-81
2023/10/25 05:40:20;;;;;;;7.03;4.37;;;;;;;-145.69;67.67;52278.03;5073421;28;20199;-80
2023/10/25 05:42:48;;;;;;;7.60;4.67;;;;;;;-145.69;67.67;52278.03;5073079;28;20725;-80
2023/10/25 05:45:15;;;;;;;8.10;4.80;;;;;;;-145.69;68.20;52266.16;5072907;28;20303;-79
2023/10/25 05:47:46;;;;;;;7.97;4.50;;;;;;;-145.69;68.52;52252.28;5072929;28;20199;-79
2023/10/25 05:50:16;;;;;;;8.07;4.90;;;;;;;-145.69;68.34;52270.13;5074588;28;20203;-80
2023/10/25 05:52:44;;;;;;;7.70;4.70;;;;;;;-145.69;68.02;52258.22;5073038;28;20195;-80
2023/10/25 05:55:13;;;;;;;7.20;4.83;;;;;;;-145.69;68.27;52260.22;5072748;28;20711;-81
2023/10/25 05:57:40;;;;;;;10.30;4.70;;;;;;;-145.69;67.20;52278.03;5072807;28;20288;-80
2023/10/25 06:00:09;;;;;;;8.60;4.60;;;;;;;-145.69;67.32;52266.16;5074343;28;20207;-81
2023/10/25 06:02:38;;;;;;;10.83;4.60;;;;;;;-145.69;68.50;52289.91;5093227;28;20209;-81
2023/10/25 06:05:12;;;;;;;11.30;4.80;;;;;;;-145.69;68.00;52268.13;5093695;28;20225;-81
2023/10/25 06:07:42;;;;;;;7.53;4.83;;;;;;;-145.69;68.13;52272.09;5093339;28;20203;-80
2023/10/25 06:10:27;;;;;;;9.43;5.67;;;;;;;-145.69;68.32;52289.91;5093316;28;20213;-80
2023/10/25 06:12:54;;;;;;;8.70;5.23;;;;;;;-145.69;69.07;52250.31;5092986;28;20238;-80
2023/10/25 06:15:21;;;;;;;9.63;5.40;;;;;;;-145.69;68.73;52272.09;5093062;28;20641;-80
2023/10/25 06:17:47;;;;;;;14.40;6.00;;;;;;;-145.69;68.74;52266.16;5092965;28;20573;-80
2023/10/25 06:20:19;;;;;;;9.47;5.67;;;;;;;-145.69;68.67;52264.16;5086003;28;20285;-80
2023/10/25 06:22:49;;;;;;;10.63;5.80;;;;;;;-145.69;68.14;52254.28;5072863;28;20601;-81
2023/10/25 06:25:20;;;;;;;8.57;4.97;;;;;;;-145.69;68.48;52252.28;5072718;28;20256;-80
2023/10/25 06:27:50;;;;;;;9.53;5.50;;;;;;;-145.69;67.99;52256.25;5072783;28;20686;-80
2023/10/25 06:30:16;;;;;;;8.77;5.50;;;;;;;-145.69;69.14;52274.06;5076740;28;20280;-80
2023/10/25 06:32:45;;;;;;;14.47;5.90;;;;;;;-145.69;68.77;52246.34;5076415;28;20328;-80
2023/10/25 06:35:12;;;;;;;7.97;4.90;;;;;;;-145.69;67.82;52276.06;5076603;28;20223;-80
2023/10/25 06:37:39;;;;;;;9.13;5.43;;;;;;;-145.69;67.86;52220.59;5076820;28;20649;-80
2023/10/25 06:40:12;;;;;;;12.93;5.63;;;;;;;-145.69;68.47;52278.03;5076432;28;20206;-80
2023/10/25 06:42:39;;;;;;;8.43;5.03;;;;;;;-145.69;68.84;52278.03;5076000;28;20314;-80
2023/10/25 06:45:08;;;;;;;12.50;5.60;;;;;;;-145.69;69.39;52262.19;5076662;28;20241;-80
2023/10/25 06:47:37;;;;;;;8.60;5.47;;;;;;;-145.69;69.22;52248.34;5076460;28;20257;-80
2023/10/25 06:50:07;;;;;;;13.57;5.47;;;;;;;-145.69;69.52;52270.13;5080611;28;20201;-80
2023/10/25 06:52:34;;;;;;;10.63;5.80;;;;;;;-145.69;69.93;52246.34;5096406;28;20202;-80
2023/10/25 06:55:01;;;;;;;11.10;5.73;;;;;;;-145.69;69.57;52262.19;5061460;28;20199;-81
2023/10/25 06:57:31;;;;;;;10.87;5.80;;;;;;;-145.69;69.14;52258.22;5056101;28;20206;-80
2023/10/25 07:00:00;;;;;;;9.73;5.13;;;;;;;-145.69;69.46;52254.28;5056282;28;20290;-81
2023/10/25 07:02:43;;;;;;;9.83;5.70;;;;;;;-145.69;69.20;52232.50;5070846;28;20191;-81
2023/10/25 07:05:16;;;;;;;16.33;6.50;;;;;;;-145.69;69.44;52270.13;5076266;28;20219;-80
2023/10/25 07:07:45;;;;;;;12.00;6.30;;;;;;;-145.69;68.96;52244.38;5075960;28;20198;-81
2023/10/25 07:10:15;;;;;;;12.37;6.90;;;;;;;-145.69;69.46;52234.47;5075628;28;20673;-80
2023/10/25 07:12:43;;;;;;;11.37;6.20;;;;;;;-145.69;67.73;52276.06;5088324;28;20236;-81
2023/10/25 07:15:12;;;;;;;12.13;5.93;;;;;;;-145.69;68.45;52254.28;5096276;28;20294;-81
2023/10/25 07:17:39;;;;;;;11.20;6.07;;;;;;;-145.69;68.24;52250.31;5096109;28;20198;-80
2023/10/25 07:20:07;;;;;;;11.00;5.83;;;;;;;-145.69;66.18;52274.06;5095899;28;20621;-81
2023/10/25 07:22:38;;;;;;;11.47;5.87;;;;;;;-145.69;65.77;52258.22;5096115;28;20202;-81
2023/10/25 07:25:15;;;;;;;9.53;5.67;;;;;;;-145.69;66.39;52248.34;5097201;28;20297;-81
2023/10/25 07:27:45;;;;;;;8.67;5.07;;;;;;;-145.69;65.52;52216.66;5080819;28;20205;-82
2023/10/25 07:30:12;;;;;;;10.50;5.27;;;;;;;-145.69;66.13;52244.38;5075684;28;20268;-81
2023/10/25 07:32:43;;;;;;;8.60;5.40;;;;;;;-145.69;64.87;52228.53;5076631;28;20289;-82
2023/10/25 07:35:10;;;;;;;6.80;4.50;;;;;;;-145.69;65.66;52184.97;5082603;28;20661;-81
2023/10/25 07:37:39;;;;;;;5.83;4.07;;;;;;;-145.69;65.63;52222.59;5095833;28;20230;-82
2023/10/25 07:40:09;;;;;;;6.57;4.27;;;;;;;-145.69;65.38;52260.22;5090885;28;20223;-82
2023/10/25 07:42:36;;;;;;;8.00;4.45;;;;;;;-145.69;65.52;52234.47;5095148;28;20240;-81
2023/10/25 07:45:07;;;;;;;5.32;4.20;;;;;;;-145.69;64.90;52246.34;5084478;28;20229;-81
2023/10/25 07:47:34;;;;;;;7.25;4.15;;;;;;;-145.69;64.75;52210.72;5075724;28;20202;-81
2023/10/25 07:50:00;;;;;;;5.83;3.83;;;;;;;-145.69;63.01;52238.44;5075375;28;20290;-81
2023/10/25 07:52:29;;;;;;;5.68;3.47;;;;;;;-145.69;64.72;52214.66;5075299;28;20210;-81
2023/10/25 07:55:00;;;;;;;5.40;3.67;;;;;;;-145.69;64.74;52226.53;5075146;28;20222;-82
2023/10/25 07:57:33;;;;;;;5.43;3.53;;;;;;;-145.69;63.88;52210.72;5075157;28;20467;-81
2023/10/25 08:00:05;;;;;;;5.80;3.45;;;;;;;-145.69;63.21;52214.66;5075109;28;20215;-81
2023/10/25 08:02:32;;;;;;;5.00;3.03;;;;;;;-145.69;63.46;52224.56;5075170;28;20298;-81
2023/10/25 08:04:59;;;;;;;9.10;3.15;;;;;;;-145.69;62.45;52222.59;5075193;28;20198;-82
2023/10/25 08:07:26;;;;;;;4.28;2.92;;;;;;;-145.69;63.31;52222.59;5075297;28;20317;-82
2023/10/25 08:09:53;;;;;;;5.40;3.53;;;;;;;-145.69;61.26;52198.81;5076677;28;20737;-82
2023/10/25 08:12:22;;;;;;;5.75;2.83;;;;;;;-145.69;61.97;52198.81;5095104;28;20285;-82
2023/10/25 08:14:51;;;;;;;3.95;3.05;;;;;;;-145.69;60.84;52212.69;5095447;28;20264;-81
2023/10/25 08:17:22;;;;;;;4.85;2.70;;;;;;;-145.69;61.50;52175.06;5095734;28;20234;-82
2023/10/25 08:19:48;;;;;;;3.97;2.55;;;;;;;-145.69;60.16;52206.75;5095157;28;20213;-82
2023/10/25 08:22:15;;;;;;;3.83;2.80;;;;;;;-145.69;61.04;52220.59;5094999;28;20292;-82
2023/10/25 08:24:41;;;;;;;5.55;2.80;;;;;;;-145.69;59.34;52196.84;5095307;28;20256;-81
2023/10/25 08:27:10;;;;;;;3.20;2.45;;;;;;;-145.69;59.45;52186.94;5096202;28;20222;-82
2023/10/25 08:29:36;;;;;;;3.42;2.35;;;;;;;-145.69;59.13;52214.66;5096641;28;20202;-82
2023/10/25 08:32:03;;;;;;;3.22;2.30;;;;;;;-145.69;58.27;52188.91;5077897;28;20230;-82
2023/10/25 08:34:33;;;;;;;5.05;2.20;;;;;;;-145.69;58.63;52192.88;5093228;28;20214;-82
2023/10/25 08:37:00;;;;;;;2.67;2.00;;;;;;;-145.69;57.58;52202.78;5096031;28;20205;-83
2023/10/25 08:39:26;;;;;;;2.85;2.03;;;;;;;-145.69;57.10;52151.28;5096738;28;20209;-83
2023/10/25 08:41:59;;;;;;;2.78;1.85;;;;;;;-145.69;56.33;52186.94;5076605;28;20195;-82
2023/10/25 08:44:32;;;;;;;2.70;1.80;;;;;;;-145.69;55.89;52194.88;5075314;28;20187;-83
2023/10/25 08:46:59;;;;;;;2.63;1.83;;;;;;;-145.69;56.55;52200.81;5091084;28;20750;-81
2023/10/25 08:49:28;;;;;;;2.40;1.52;;;;;;;-145.69;55.67;52188.91;5094793;28;20607;-83
2023/10/25 08:51:56;;;;;;;3.30;1.80;;;;;;;-145.69;55.69;52119.63;5079744;28;20282;-83
2023/10/25 08:54:24;;;;;;;4.00;2.08;;;;;;;-145.69;55.26;52208.72;5074536;28;20669;-81
2023/10/25 08:56:58;;;;;;;2.08;1.67;;;;;;;-145.69;55.05;52123.56;5086045;28;20280;-81
2023/10/25 08:59:24;;;;;;;2.28;1.67;;;;;;;-145.69;55.01;52196.84;5093932;28;20690;-83
2023/10/25 09:01:51;;;;;;;1.98;1.30;;;;;;;-145.69;54.87;52167.13;5054793;28;20203;-82
2023/10/25 09:04:23;;;;;;;2.72;1.25;;;;;;;-145.69;54.44;52179.03;5071488;28;20203;-82
2023/10/25 09:06:50;;;;;;;3.50;1.73;;;;;;;-145.69;54.37;52171.09;5074339;28;20231;-83
2023/10/25 09:09:18;;;;;;;2.10;1.45;;;;;;;-145.69;53.66;52177.03;5074303;28;20293;-83
2023/10/25 09:11:46;;;;;;;4.28;1.50;;;;;;;-145.69;53.88;52179.03;5074459;28;20278;-82
2023/10/25 09:14:13;;;;;;;1.98;1.55;;;;;;;-145.69;53.38;52157.25;5074736;28;20202;-82
2023/10/25 09:16:44;;;;;;;1.90;1.40;;;;;;;-145.69;53.03;52171.09;5074710;28;20202;-82
2023/10/25 09:19:12;;;;;;;1.10;1.00;;;;;;;-145.69;51.83;52143.38;5074910;28;20210;-82
2023/10/25 09:21:41;;;;;;;3.15;1.20;;;;;;;-145.69;52.11;52155.25;5074838;28;20199;-83
2023/10/25 09:24:10;;;;;;;4.13;1.10;;;;;;;-145.69;51.00;52145.34;5075707;28;20566;-82
2023/10/25 09:26:40;;;;;;;2.22;1.40;;;;;;;-145.69;50.82;52125.56;5085755;28;20221;-83
2023/10/25 09:29:09;;;;;;;2.42;1.02;;;;;;;-145.69;49.81;52131.50;5095699;28;20206;-83
2023/10/25 09:31:37;;;;;;;2.75;1.50;;;;;;;-145.69;50.20;52153.28;5096685;28;20229;-82
2023/10/25 09:34:10;;;;;;;3.05;1.58;;;;;;;-145.69;49.98;52159.22;5079200;28;20202;-82
2023/10/25 09:36:38;;;;;;;1.80;1.20;;;;;;;-145.69;50.54;52119.63;5074851;28;20199;-83
2023/10/25 09:39:05;;;;;;;1.38;1.10;;;;;;;-145.69;49.76;52127.53;5074543;28;20199;-83
2023/10/25 09:41:40;;;;;;;1.77;1.23;;;;;;;-145.69;50.05;52139.41;5090408;28;20197;-83
2023/10/25 09:44:25;;;;;;;3.53;1.60;;;;;;;-145.69;49.65;52143.38;5095424;28;20293;-82
2023/10/25 09:46:57;;;;;;;5.25;1.50;;;;;;;-145.69;49.16;52147.34;5095646;28;20238;-82
2023/10/25 09:49:31;;;;;;;1.75;1.17;;;;;;;-145.69;48.62;52095.84;5097304;28;20204;-82
2023/10/25 09:52:06;;;;;;;2.28;1.02;;;;;;;-145.69;47.81;52080.00;5097969;28;20208;-83
2023/10/25 09:54:34;;;;;;;2.83;0.98;;;;;;;-145.69;48.30;52123.56;5096773;28;20637;-83
2023/10/25 09:57:04;;;;;;;1.25;1.05;;;;;;;-145.69;48.04;52103.78;5096387;28;20293;-83
2023/10/25 09:59:38;;;;;;;1.83;1.10;;;;;;;-145.69;47.75;52089.91;5095998;28;20644;-83
2023/10/25 10:02:08;;;;;;;1.42;1.15;;;;;;;-145.69;47.03;52127.53;5077553;28;20229;-84
2023/10/25 10:04:48;;;;;;;1.40;0.90;;;;;;;-145.69;47.67;52115.66;5079771;28;20210;-83
2023/10/25 10:07:28;;;;;;;1.20;1.00;;;;;;;-145.69;47.64;52080.00;5077863;28;20261;-83
2023/10/25 10:10:02;;;;;;;1.00;0.90;;;;;;;-145.69;47.38;52115.66;5077249;28;20195;-83
2023/10/25 10:12:33;;;;;;;1.10;1.00;;;;;;;-145.69;46.57;52087.94;5078280;28;20201;-83
2023/10/25 10:15:00;;;;;;;3.38;0.93;;;;;;;-145.69;46.21;52093.88;5077385;28;20207;-85
2023/10/25 10:17:41;;;;;;;0.95;0.80;;;;;;;-145.69;46.03;52099.81;5077357;28;20657;-83
2023/10/25 10:20:21;;;;;;;2.67;0.80;;;;;;;-145.69;46.28;52093.88;5077676;28;20285;-84
2023/10/25 10:23:02;;;;;;;2.80;0.98;;;;;;;-145.69;45.12;52078.03;5094161;28;20206;-84
2023/10/25 10:25:43;;;;;;;1.30;0.90;;;;;;;-145.69;45.39;52087.94;5078927;28;20649;-84
2023/10/25 10:28:12;;;;;;;0.93;0.90;;;;;;;-145.69;44.86;52064.16;5076626;28;20284;-83
2023/10/25 10:30:41;;;;;;;1.10;1.00;;;;;;;-145.69;43.94;52087.94;5074340;28;20634;-83
2023/10/25 10:33:10;;;;;;;1.05;0.57;;;;;;;-145.69;44.44;52129.50;5080459;28;20206;-83
2023/10/25 10:35:40;;;;;;;1.95;0.98;;;;;;;-145.69;45.73;52083.97;5078240;28;20225;-83
2023/10/25 10:38:07;;;;;;;1.55;0.73;;;;;;;-145.69;44.92;52070.09;5076369;28;20207;-83
2023/10/25 10:40:33;;;;;;;0.85;0.70;;;;;;;-145.69;45.29;52064.16;5076527;28;20259;-82
2023/10/25 10:43:00;;;;;;;1.50;0.80;;;;;;;-145.69;44.73;52091.88;5076009;28;20313;-83
2023/10/25 10:45:30;;;;;;;2.95;0.60;;;;;;;-145.69;44.17;52095.84;5076927;28;20203;-83
2023/10/25 10:48:04;;;;;;;1.23;0.70;;;;;;;-145.69;44.15;52054.25;5074769;28;20719;-83
2023/10/25 10:50:30;;;;;;;0.60;0.60;;;;;;;-145.69;44.35;52082.00;5076831;28;20294;-83
2023/10/25 10:52:57;;;;;;;0.90;0.80;;;;;;;-145.69;44.20;52095.84;5071687;28;20227;-81
2023/10/25 10:55:26;;;;;;;3.67;0.73;;;;;;;-145.69;43.25;52076.03;5073401;28;20194;-81
2023/10/25 10:57:53;;;;;;;1.20;0.68;;;;;;;-145.69;43.61;52072.09;5073645;28;20240;-81
2023/10/25 11:00:20;;;;;;;1.10;0.70;;;;;;;-145.69;43.30;52089.91;5070369;28;20198;-81
2023/10/25 11:02:49;;;;;;;1.27;0.88;;;;;;;-145.69;43.58;52064.16;5073552;28;20289;-82
2023/10/25 11:05:19;;;;;;;1.77;0.80;;;;;;;-145.69;43.76;52060.22;5072932;28;20203;-82
2023/10/25 11:07:47;;;;;;;1.42;0.75;;;;;;;-145.69;44.85;52082.00;5072938;28;20229;-81
2023/10/25 11:10:15;;;;;;;2.40;0.77;;;;;;;-145.69;43.76;52056.25;5073344;28;20203;-83
2023/10/25 11:12:42;;;;;;;0.93;0.60;;;;;;;-145.69;42.94;52078.03;5072682;28;20289;-82
2023/10/25 11:15:12;;;;;;;1.10;0.80;;;;;;;-145.69;43.46;52072.09;5074066;28;20202;-81
2023/10/25 11:17:39;;;;;;;0.75;0.60;;;;;;;-145.69;42.91;52080.00;5077639;28;20233;-83
2023/10/25 11:20:07;;;;;;;1.02;0.50;;;;;;;-145.69;42.81;52091.88;5096133;28;20194;-82
2023/10/25 11:22:36;;;;;;;0.95;0.75;;;;;;;-145.69;42.18;52095.84;5096943;28;20198;-83